createdAt,value
2019-05-09T00:00:04.354Z,21.00
2019-05-09T00:01:04.333Z,21.10
2019-05-09T00:02:04.318Z,21.50
2019-05-09T00:03:04.316Z,21.50
2019-05-09T00:04:04.304Z,21.40
2019-05-09T00:05:04.291Z,21.30
2019-05-09T00:06:04.707Z,20.90
2019-05-09T00:07:04.263Z,21.40
2019-05-09T00:08:04.267Z,21.30
2019-05-09T00:09:04.253Z,21.00
2019-05-09T00:10:04.282Z,20.60
2019-05-09T00:11:04.228Z,20.50
2019-05-09T00:12:04.231Z,20.90
2019-05-09T00:13:04.197Z,20.30
2019-05-09T00:14:04.686Z,20.20
2019-05-09T00:15:04.574Z,20.40
2019-05-09T00:16:04.165Z,20.40
2019-05-09T00:17:04.171Z,20.40
2019-05-09T00:18:04.169Z,20.70
2019-05-09T00:19:04.130Z,20.40
2019-05-09T00:20:04.133Z,20.40
2019-05-09T00:21:04.278Z,20.60
2019-05-09T00:22:04.097Z,20.50
2019-05-09T00:23:04.112Z,20.40
2019-05-09T00:24:04.110Z,20.50
2019-05-09T00:25:04.066Z,20.20
2019-05-09T00:26:04.313Z,20.40
2019-05-09T00:27:04.075Z,20.70
2019-05-09T00:28:04.259Z,20.70
2019-05-09T00:29:04.036Z,20.80
2019-05-09T00:30:04.058Z,20.80
2019-05-09T00:31:03.997Z,20.40
2019-05-09T00:32:03.998Z,20.40
2019-05-09T00:33:03.981Z,20.70
2019-05-09T00:34:04.300Z,20.50
2019-05-09T00:35:04.132Z,20.50
2019-05-09T00:36:04.401Z,20.60
2019-05-09T00:37:04.008Z,20.70
2019-05-09T00:38:04.432Z,20.60
2019-05-09T00:39:04.176Z,20.30
2019-05-09T00:40:04.136Z,20.50
2019-05-09T00:41:03.980Z,20.50
2019-05-09T00:42:04.502Z,20.30
2019-05-09T00:43:04.152Z,20.80
2019-05-09T00:44:03.850Z,20.40
2019-05-09T00:45:04.210Z,20.70
2019-05-09T00:46:04.428Z,20.30
2019-05-09T00:47:04.309Z,20.60
2019-05-09T00:48:03.809Z,20.80
2019-05-09T00:49:05.020Z,20.60
2019-05-09T00:50:05.181Z,20.80
2019-05-09T00:51:03.800Z,20.60
2019-05-09T00:52:03.779Z,20.90
2019-05-09T00:53:03.767Z,20.50
2019-05-09T00:54:04.272Z,20.50
2019-05-09T00:55:04.007Z,21.20
2019-05-09T00:56:04.394Z,20.80
2019-05-09T00:57:03.718Z,20.60
2019-05-09T00:58:04.318Z,21.10
2019-05-09T00:59:04.395Z,20.50
2019-05-09T01:00:04.084Z,20.80
2019-05-09T01:01:04.483Z,20.70
2019-05-09T03:16:49.346Z,21.00
2019-05-09T03:17:32.634Z,21.50
2019-05-09T03:18:32.624Z,21.20
2019-05-09T03:19:32.618Z,20.80
2019-05-09T03:20:32.607Z,21.30
2019-05-09T03:21:32.606Z,20.90
2019-05-09T03:22:32.605Z,21.10
2019-05-09T03:23:32.569Z,20.90
2019-05-09T03:24:32.559Z,21.20
2019-05-09T03:25:32.553Z,21.20
2019-05-09T03:26:32.544Z,20.80
2019-05-09T03:27:32.523Z,20.70
2019-05-09T03:28:32.516Z,21.00
2019-05-09T03:29:32.503Z,21.00
2019-05-09T03:30:32.497Z,21.20
2019-05-09T03:31:32.484Z,21.40
2019-05-09T03:32:32.528Z,21.00
2019-05-09T03:33:35.479Z,21.40
2019-05-09T03:34:32.444Z,20.70
2019-05-09T03:35:32.441Z,20.80
2019-05-09T03:36:32.421Z,20.90
2019-05-09T03:37:32.421Z,21.00
2019-05-09T03:38:32.455Z,20.70
2019-05-09T03:39:32.392Z,21.40
2019-05-09T03:40:32.382Z,21.40
2019-05-09T03:41:32.373Z,21.60
2019-05-09T03:42:41.127Z,21.10
2019-05-09T03:43:33.365Z,20.80
2019-05-09T03:44:32.340Z,21.30
2019-05-09T03:45:32.333Z,20.70
2019-05-09T03:46:32.310Z,20.80
2019-05-09T03:47:32.302Z,20.70
2019-05-09T03:48:32.328Z,21.10
2019-05-09T03:49:32.287Z,20.80
2019-05-09T03:50:32.274Z,20.40
2019-05-09T03:51:32.253Z,20.70
2019-05-09T03:52:32.249Z,20.60
2019-05-09T03:53:32.240Z,21.20
2019-05-09T03:54:32.233Z,20.60
2019-05-09T03:55:32.244Z,21.10
2019-05-09T03:56:32.206Z,20.60
2019-05-09T03:57:32.207Z,21.10
2019-05-09T03:58:32.197Z,21.10
2019-05-09T03:59:32.171Z,21.80
2019-05-09T04:00:32.173Z,21.60
2019-05-09T04:01:32.143Z,20.80
2019-05-09T04:02:32.146Z,21.20
2019-05-09T04:03:32.123Z,21.40
2019-05-09T04:04:32.114Z,21.10
2019-05-09T04:05:32.102Z,21.70
2019-05-09T04:06:32.107Z,20.60
2019-05-09T04:07:32.079Z,21.20
2019-05-09T04:08:32.067Z,21.00
2019-05-09T04:09:32.059Z,21.20
2019-05-09T04:10:32.046Z,21.00
2019-05-09T04:11:32.046Z,21.00
2019-05-09T04:12:32.025Z,21.20
2019-05-09T04:13:32.009Z,20.80
2019-05-09T04:14:32.024Z,21.10
2019-05-09T04:15:31.987Z,21.50
2019-05-09T04:16:31.983Z,21.10
2019-05-09T04:17:31.975Z,21.60
2019-05-09T04:18:31.975Z,21.90
2019-05-09T04:19:31.948Z,21.60
2019-05-09T04:20:31.953Z,21.50
2019-05-09T04:21:31.926Z,21.40
2019-05-09T04:22:31.920Z,21.60
2019-05-09T04:23:31.900Z,21.30
2019-05-09T04:24:31.888Z,21.60
2019-05-09T04:25:31.882Z,21.50
2019-05-09T04:26:31.866Z,21.80
2019-05-09T04:27:31.869Z,21.10
2019-05-09T04:28:31.855Z,21.90
2019-05-09T04:29:31.835Z,21.20
2019-05-09T04:30:31.820Z,21.10
2019-05-09T04:31:31.806Z,21.00
2019-05-09T04:32:31.811Z,21.50
2019-05-09T04:33:31.804Z,22.00
2019-05-09T04:34:31.784Z,21.10
2019-05-09T04:35:31.767Z,21.50
2019-05-09T04:36:31.750Z,21.00
2019-05-09T04:37:31.741Z,21.40
2019-05-09T04:38:31.745Z,21.70
2019-05-09T04:39:31.717Z,21.60
2019-05-09T04:40:32.207Z,22.20
2019-05-09T04:41:31.695Z,21.60
2019-05-09T04:42:35.125Z,21.90
2019-05-09T04:43:36.765Z,21.80
2019-05-09T04:44:31.677Z,21.70
2019-05-09T04:45:33.193Z,21.30
2019-05-09T04:46:32.637Z,21.70
2019-05-09T04:47:33.910Z,21.50
2019-05-09T04:48:32.632Z,22.10
2019-05-09T04:49:39.668Z,22.10
2019-05-09T04:50:32.597Z,21.20
2019-05-09T04:51:31.587Z,21.40
2019-05-09T04:52:31.572Z,22.10
2019-05-09T04:53:31.563Z,22.60
2019-05-09T04:54:31.574Z,22.30
2019-05-09T04:55:31.540Z,22.00
2019-05-09T04:56:31.530Z,22.00
2019-05-09T04:57:31.521Z,22.00
2019-05-09T04:58:31.512Z,21.90
2019-05-09T04:59:31.494Z,22.40
2019-05-09T05:00:31.495Z,22.70
2019-05-09T05:01:31.481Z,23.00
2019-05-09T05:02:31.470Z,22.80
2019-05-09T05:03:31.454Z,22.70
2019-05-09T05:04:31.485Z,22.30
2019-05-09T05:05:31.442Z,22.50
2019-05-09T05:06:31.422Z,21.70
2019-05-09T05:07:31.405Z,22.20
2019-05-09T05:08:31.397Z,22.30
2019-05-09T05:09:31.383Z,21.70
2019-05-09T05:10:31.389Z,22.00
2019-05-09T05:11:31.361Z,22.20
2019-05-09T05:12:31.348Z,21.90
2019-05-09T05:13:31.335Z,22.00
2019-05-09T05:14:31.331Z,21.90
2019-05-09T05:15:31.328Z,22.20
2019-05-09T05:16:31.314Z,22.30
2019-05-09T05:17:31.316Z,22.50
2019-05-09T05:18:31.300Z,22.00
2019-05-09T05:19:31.659Z,22.50
2019-05-09T05:20:31.281Z,22.30
2019-05-09T05:21:31.252Z,22.10
2019-05-09T05:22:31.258Z,22.30
2019-05-09T05:23:31.230Z,22.40
2019-05-09T05:24:31.217Z,22.70
2019-05-09T05:25:31.204Z,22.70
2019-05-09T05:26:31.200Z,22.70
2019-05-09T05:27:31.187Z,22.70
2019-05-09T05:28:31.184Z,22.60
2019-05-09T05:29:31.161Z,23.20
2019-05-09T05:30:31.144Z,23.10
2019-05-09T05:31:31.140Z,23.20
2019-05-09T05:32:31.130Z,23.00
2019-05-09T05:33:31.136Z,23.20
2019-05-09T05:34:31.118Z,23.20
2019-05-09T05:35:31.095Z,23.00
2019-05-09T05:36:31.077Z,23.50
2019-05-09T05:37:31.073Z,23.20
2019-05-09T05:38:31.065Z,23.60
2019-05-09T05:39:31.065Z,22.80
2019-05-09T05:40:33.523Z,23.20
2019-05-09T05:41:31.040Z,22.80
2019-05-09T05:42:31.016Z,22.80
2019-05-09T05:43:40.595Z,23.50
2019-05-09T05:44:32.022Z,23.00
2019-05-09T05:45:30.977Z,23.20
2019-05-09T05:46:30.979Z,22.60
2019-05-09T05:47:30.956Z,23.40
2019-05-09T05:48:30.947Z,22.80
2019-05-09T05:49:30.933Z,22.70
2019-05-09T05:50:30.938Z,22.70
2019-05-09T05:51:30.919Z,22.50
2019-05-09T05:52:30.908Z,22.90
2019-05-09T05:53:30.886Z,22.90
2019-05-09T05:54:30.876Z,22.20
2019-05-09T05:55:30.887Z,22.70
2019-05-09T05:56:30.880Z,22.30
2019-05-09T05:57:30.852Z,22.10
2019-05-09T05:58:30.844Z,22.70
2019-05-09T05:59:30.896Z,22.80
2019-05-09T06:00:30.811Z,22.70
2019-05-09T06:01:30.819Z,21.90
2019-05-09T06:02:30.791Z,22.30
2019-05-09T06:03:30.783Z,22.60
2019-05-09T06:04:30.768Z,22.90
2019-05-09T06:05:30.757Z,22.80
2019-05-09T06:06:33.046Z,22.50
2019-05-09T06:07:31.329Z,22.40
2019-05-09T06:08:30.965Z,22.30
2019-05-09T06:09:30.850Z,22.50
2019-05-09T06:10:30.703Z,23.00
2019-05-09T06:11:30.690Z,22.60
2019-05-09T06:12:30.691Z,22.60
2019-05-09T06:13:30.675Z,22.70
2019-05-09T06:14:30.666Z,22.70
2019-05-09T06:15:30.660Z,22.60
2019-05-09T06:16:30.644Z,22.70
2019-05-09T06:17:30.640Z,22.50
2019-05-09T06:18:30.631Z,23.00
2019-05-09T06:19:30.635Z,22.70
2019-05-09T06:20:30.595Z,22.70
2019-05-09T06:21:30.587Z,22.50
2019-05-09T06:22:30.628Z,22.60
2019-05-09T06:23:30.619Z,22.80
2019-05-09T06:24:30.577Z,22.20
2019-05-09T06:25:30.995Z,22.60
2019-05-09T06:26:30.541Z,22.00
2019-05-09T06:27:30.517Z,22.30
2019-05-09T06:28:30.514Z,22.50
2019-05-09T06:29:30.516Z,22.20
2019-05-09T06:30:30.489Z,22.40
2019-05-09T06:31:30.476Z,23.00
2019-05-09T06:32:30.483Z,22.50
2019-05-09T06:33:30.460Z,22.40
2019-05-09T06:34:30.458Z,23.30
2019-05-09T06:35:30.434Z,23.10
2019-05-09T06:36:30.438Z,22.40
2019-05-09T06:37:30.415Z,22.40
2019-05-09T06:38:30.397Z,22.40
2019-05-09T06:39:30.420Z,22.50
2019-05-09T06:40:30.392Z,22.60
2019-05-09T06:41:30.362Z,23.10
2019-05-09T06:42:30.356Z,22.80
2019-05-09T06:43:30.355Z,22.60
2019-05-09T06:44:30.336Z,22.70
2019-05-09T06:45:30.344Z,22.30
2019-05-09T06:46:30.325Z,22.40
2019-05-09T06:47:30.306Z,22.00
2019-05-09T06:48:30.296Z,21.70
2019-05-09T06:49:31.931Z,21.70
2019-05-09T06:50:30.274Z,21.80
2019-05-09T06:51:30.264Z,21.90
2019-05-09T06:52:30.253Z,21.50
2019-05-09T06:53:30.231Z,21.30
2019-05-09T06:54:30.244Z,21.70
2019-05-09T06:55:30.231Z,21.30
2019-05-09T06:56:30.232Z,21.80
2019-05-09T06:57:30.193Z,21.50
2019-05-09T06:58:30.184Z,20.90
2019-05-09T06:59:30.264Z,21.30
2019-05-09T07:00:30.173Z,21.00
2019-05-09T07:01:30.147Z,21.30
2019-05-09T07:02:30.143Z,20.80
2019-05-09T07:03:30.121Z,21.10
2019-05-09T07:04:30.112Z,21.30
2019-05-09T07:05:30.103Z,21.20
2019-05-09T07:06:30.104Z,21.40
2019-05-09T07:07:30.091Z,21.40
2019-05-09T07:08:31.440Z,21.10
2019-05-09T07:09:30.069Z,21.30
2019-05-09T07:10:30.043Z,21.80
2019-05-09T07:11:30.037Z,21.70
2019-05-09T07:12:30.034Z,21.30
2019-05-09T07:13:30.010Z,21.20
2019-05-09T07:14:33.197Z,20.90
2019-05-09T07:15:29.987Z,21.40
2019-05-09T07:16:29.982Z,20.80
2019-05-09T07:17:31.807Z,20.90
2019-05-09T07:18:29.959Z,20.70
2019-05-09T07:19:29.939Z,21.20
2019-05-09T07:20:29.939Z,21.20
2019-05-09T07:21:29.939Z,20.80
2019-05-09T07:22:29.909Z,20.90
2019-05-09T07:23:29.892Z,21.50
2019-05-09T07:24:29.888Z,20.90
2019-05-09T07:25:29.885Z,21.30
2019-05-09T07:26:29.875Z,20.80
2019-05-09T07:27:29.868Z,21.40
2019-05-09T07:28:29.854Z,21.10
2019-05-09T07:29:29.827Z,21.10
2019-05-09T07:30:29.818Z,21.50
2019-05-09T07:31:29.840Z,21.50
2019-05-09T07:32:29.796Z,21.00
2019-05-09T07:33:29.786Z,21.20
2019-05-09T07:34:29.798Z,21.00
2019-05-09T07:35:29.771Z,21.30
2019-05-09T07:36:29.749Z,21.10
2019-05-09T07:37:29.736Z,21.10
2019-05-09T07:38:29.725Z,21.50
2019-05-09T07:39:29.723Z,21.40
2019-05-09T07:40:30.687Z,21.80
2019-05-09T07:41:29.692Z,21.70
2019-05-09T07:42:29.687Z,21.40
2019-05-09T07:43:29.670Z,21.60
2019-05-09T07:44:45.042Z,21.90
2019-05-09T07:45:30.639Z,21.80
2019-05-09T07:46:29.642Z,21.20
2019-05-09T07:47:29.616Z,21.30
2019-05-09T07:48:29.614Z,21.80
2019-05-09T07:49:29.594Z,21.60
2019-05-09T07:50:29.588Z,21.40
2019-05-09T07:51:29.583Z,21.80
2019-05-09T07:52:29.581Z,21.50
2019-05-09T07:53:29.566Z,21.90
2019-05-09T07:54:29.581Z,21.30
2019-05-09T07:55:29.541Z,21.30
2019-05-09T07:56:29.549Z,21.50
2019-05-09T07:57:29.519Z,21.20
2019-05-09T07:58:29.511Z,21.00
2019-05-09T07:59:29.489Z,21.10
2019-05-09T08:00:29.481Z,21.00
2019-05-09T08:01:29.494Z,20.70
2019-05-09T08:02:29.457Z,20.70
2019-05-09T08:03:29.450Z,21.10
2019-05-09T08:04:29.455Z,20.80
2019-05-09T08:05:29.426Z,21.30
2019-05-09T08:06:29.416Z,21.00
2019-05-09T08:07:29.397Z,21.00
2019-05-09T08:08:29.394Z,20.50
2019-05-09T08:09:29.382Z,20.60
2019-05-09T08:10:32.902Z,20.80
2019-05-09T08:11:32.197Z,20.90
2019-05-09T08:12:29.343Z,20.90
2019-05-09T08:13:29.333Z,20.80
2019-05-09T08:14:29.321Z,20.50
2019-05-09T08:15:29.310Z,20.20
2019-05-09T08:16:29.303Z,20.80
2019-05-09T08:17:29.282Z,21.20
2019-05-09T08:18:29.273Z,20.50
2019-05-09T08:19:29.265Z,21.10
2019-05-09T08:20:29.278Z,20.40
2019-05-09T08:21:29.257Z,20.80
2019-05-09T08:22:32.435Z,20.20
2019-05-09T08:23:29.216Z,20.60
2019-05-09T08:24:29.232Z,20.50
2019-05-09T08:25:29.198Z,20.20
2019-05-09T08:26:30.127Z,20.70
2019-05-09T08:27:30.389Z,20.70
2019-05-09T08:28:29.164Z,20.40
2019-05-09T08:29:29.153Z,20.20
2019-05-09T08:30:35.807Z,20.70
2019-05-09T08:31:30.133Z,19.90
2019-05-09T08:32:29.139Z,20.60
2019-05-09T08:33:29.135Z,19.70
2019-05-09T08:34:29.102Z,20.30
2019-05-09T08:35:29.120Z,20.20
2019-05-09T08:36:29.096Z,20.20
2019-05-09T08:37:29.064Z,20.40
2019-05-09T08:38:29.058Z,20.40
2019-05-09T08:39:29.082Z,20.30
2019-05-09T08:40:29.032Z,20.40
2019-05-09T08:41:29.427Z,20.60
2019-05-09T08:42:29.393Z,20.60
2019-05-09T08:43:29.022Z,20.70
2019-05-09T08:44:31.159Z,20.70
2019-05-09T08:45:31.512Z,20.60
2019-05-09T08:46:28.971Z,20.40
2019-05-09T08:47:28.949Z,20.30
2019-05-09T08:48:28.946Z,20.30
2019-05-09T08:49:28.938Z,20.20
2019-05-09T08:50:28.929Z,20.10
2019-05-09T08:51:36.658Z,20.30
2019-05-09T08:52:29.891Z,20.40
2019-05-09T08:53:28.886Z,20.50
2019-05-09T08:54:28.870Z,20.70
2019-05-09T08:55:28.863Z,20.70
2019-05-09T08:56:28.874Z,20.70
2019-05-09T08:57:29.054Z,20.70
2019-05-09T08:58:28.888Z,20.90
2019-05-09T08:59:28.814Z,20.70
2019-05-09T09:00:28.804Z,20.90
2019-05-09T09:01:47.754Z,21.30
2019-05-09T09:02:29.783Z,20.80
2019-05-09T09:03:28.772Z,20.50
2019-05-09T09:04:29.509Z,20.50
2019-05-09T09:05:29.002Z,21.20
2019-05-09T09:06:28.743Z,20.80
2019-05-09T09:07:29.745Z,20.70
2019-05-09T09:08:28.723Z,20.50
2019-05-09T09:09:28.750Z,21.00
2019-05-09T09:10:29.287Z,20.60
2019-05-09T09:11:28.684Z,20.80
2019-05-09T09:12:34.224Z,20.70
2019-05-09T09:13:29.669Z,21.10
2019-05-09T09:14:28.652Z,20.80
2019-05-09T09:15:55.677Z,21.10
2019-05-09T09:16:29.630Z,21.20
2019-05-09T09:17:28.621Z,21.00
2019-05-09T09:18:28.637Z,23.90
2019-05-09T09:19:28.618Z,21.20
2019-05-09T09:20:29.024Z,21.00
2019-05-09T09:21:28.768Z,21.10
2019-05-09T09:22:28.603Z,21.10
2019-05-09T09:23:42.826Z,20.60
2019-05-09T09:24:29.550Z,20.80
2019-05-09T09:25:28.837Z,20.20
2019-05-09T09:26:28.525Z,20.40
2019-05-09T09:27:28.503Z,20.00
2019-05-09T09:28:28.491Z,20.40
2019-05-09T09:29:28.542Z,20.50
2019-05-09T09:30:29.484Z,20.90
2019-05-09T09:31:28.676Z,20.70
2019-05-09T09:32:28.473Z,20.70
2019-05-09T09:33:28.440Z,21.00
2019-05-09T09:34:30.078Z,20.70
2019-05-09T09:35:28.418Z,21.10
2019-05-09T09:36:28.446Z,21.30
2019-05-09T09:37:44.720Z,21.00
2019-05-09T09:38:29.378Z,20.70
2019-05-09T09:39:31.152Z,20.90
2019-05-09T09:40:28.385Z,20.70
2019-05-09T09:41:28.819Z,21.40
2019-05-09T09:42:28.491Z,20.80
2019-05-09T09:43:28.326Z,20.90
2019-05-09T09:44:28.837Z,21.10
2019-05-09T09:45:28.376Z,20.70
2019-05-09T09:46:28.661Z,21.00
2019-05-09T09:47:28.712Z,20.60
2019-05-09T09:48:28.547Z,21.10
2019-05-09T09:49:29.266Z,20.70
2019-05-09T09:50:28.267Z,20.50
2019-05-09T09:51:28.249Z,20.70
2019-05-09T09:52:29.311Z,20.50
2019-05-09T09:53:28.213Z,20.70
2019-05-09T09:54:28.334Z,20.90
2019-05-09T09:55:28.192Z,21.30
2019-05-09T09:56:28.514Z,21.10
2019-05-09T09:57:28.859Z,21.20
2019-05-09T09:58:28.171Z,21.50
2019-05-09T09:59:28.352Z,21.10
2019-05-09T10:00:28.140Z,21.20
2019-05-09T10:01:28.847Z,21.00
2019-05-09T10:02:28.154Z,21.40
2019-05-09T10:03:28.102Z,21.70
2019-05-09T10:04:28.459Z,21.80
2019-05-09T10:05:28.093Z,22.10
2019-05-09T10:06:28.538Z,21.50
2019-05-09T10:07:28.069Z,21.80
2019-05-09T10:08:28.063Z,21.60
2019-05-09T10:09:28.036Z,21.60
2019-05-09T10:10:28.672Z,21.60
2019-05-09T10:11:28.614Z,21.30
2019-05-09T10:12:29.111Z,21.70
2019-05-09T10:13:28.683Z,21.60
2019-05-09T10:14:28.439Z,21.30
2019-05-09T10:15:28.204Z,21.30
2019-05-09T10:16:31.881Z,20.90
2019-05-09T10:17:28.216Z,20.70
2019-05-09T10:18:27.941Z,21.20
2019-05-09T10:19:27.931Z,21.30
2019-05-09T10:20:29.141Z,21.30
2019-05-09T10:21:27.935Z,20.70
2019-05-09T10:22:27.916Z,20.40
2019-05-09T10:23:27.893Z,21.10
2019-05-09T10:24:28.160Z,21.40
2019-05-09T10:25:27.862Z,21.30
2019-05-09T10:26:28.463Z,21.20
2019-05-09T10:27:28.482Z,20.30
2019-05-09T10:28:30.094Z,20.70
2019-05-09T10:29:27.966Z,20.30
2019-05-09T10:30:28.530Z,20.60
2019-05-09T10:31:28.372Z,20.60
2019-05-09T10:32:28.871Z,20.50
2019-05-09T10:33:28.079Z,20.50
2019-05-09T10:34:28.773Z,20.30
2019-05-09T10:35:27.981Z,20.10
2019-05-09T10:36:28.031Z,20.10
2019-05-09T10:37:27.731Z,20.10
2019-05-09T10:38:28.067Z,20.10
2019-05-09T10:39:27.782Z,20.40
2019-05-09T10:40:28.196Z,20.50
2019-05-09T10:41:27.684Z,20.40
2019-05-09T10:42:28.606Z,20.20
2019-05-09T10:43:35.901Z,20.00
2019-05-09T10:44:28.650Z,20.50
2019-05-09T10:45:27.658Z,20.20
2019-05-09T10:46:33.627Z,20.50
2019-05-09T10:47:28.608Z,20.50
2019-05-09T10:48:28.287Z,20.10
2019-05-09T10:49:27.594Z,20.70
2019-05-09T10:50:34.166Z,20.30
2019-05-09T10:51:28.584Z,20.70
2019-05-09T10:52:28.375Z,20.50
2019-05-09T10:53:28.412Z,20.60
2019-05-09T10:54:27.940Z,20.30
2019-05-09T10:55:28.390Z,20.60
2019-05-09T10:56:28.178Z,20.30
2019-05-09T10:57:31.563Z,19.70
2019-05-09T10:58:28.490Z,19.70
2019-05-09T10:59:27.487Z,20.00
2019-05-09T11:00:28.881Z,19.70
2019-05-09T11:01:29.416Z,19.80
2019-05-09T11:02:28.046Z,20.00
2019-05-09T11:03:27.432Z,20.10
2019-05-09T11:04:28.800Z,19.80
2019-05-09T11:05:27.820Z,19.70
2019-05-09T11:06:28.686Z,20.30
2019-05-09T11:07:28.987Z,20.40
2019-05-09T11:08:28.599Z,20.20
2019-05-09T11:09:29.084Z,19.90
2019-05-09T11:10:31.811Z,20.00
2019-05-09T11:11:28.833Z,20.10
2019-05-09T11:12:27.722Z,20.10
2019-05-09T11:13:28.738Z,20.20
2019-05-09T11:14:33.553Z,19.80
2019-05-09T11:15:28.365Z,20.00
2019-05-09T11:16:39.597Z,19.90
2019-05-09T11:17:28.715Z,19.80
2019-05-09T11:18:28.654Z,19.90
2019-05-09T11:19:28.831Z,19.90
2019-05-09T11:20:28.375Z,19.70
2019-05-09T11:21:28.543Z,19.90
2019-05-09T11:22:29.151Z,20.10
2019-05-09T11:23:29.178Z,20.50
2019-05-09T11:24:41.682Z,20.10
2019-05-09T11:25:28.186Z,20.00
2019-05-09T11:26:28.474Z,19.70
2019-05-09T11:27:28.891Z,19.80
2019-05-09T11:28:28.562Z,19.60
2019-05-09T11:29:28.095Z,20.00
2019-05-09T11:30:28.253Z,20.40
2019-05-09T11:31:29.463Z,20.10
2019-05-09T11:32:27.879Z,20.10
2019-05-09T11:33:27.826Z,20.10
2019-05-09T11:34:27.101Z,19.90
2019-05-09T11:35:27.119Z,20.00
2019-05-09T11:36:27.069Z,19.90
2019-05-09T11:37:27.061Z,20.40
2019-05-09T11:38:35.152Z,19.90
2019-05-09T11:39:36.542Z,19.70
2019-05-09T11:40:28.277Z,19.70
2019-05-09T11:41:29.363Z,20.00
2019-05-09T11:42:28.504Z,19.70
2019-05-09T11:43:29.704Z,20.00
2019-05-09T11:44:27.334Z,20.00
2019-05-09T11:45:28.091Z,20.20
2019-05-09T11:46:28.823Z,20.10
2019-05-09T11:47:33.639Z,19.70
2019-05-09T11:48:28.450Z,20.00
2019-05-09T11:49:29.440Z,19.70
2019-05-09T11:50:26.916Z,19.50
2019-05-09T11:51:29.100Z,19.70
2019-05-09T11:52:28.827Z,19.80
2019-05-09T11:53:28.798Z,20.00
2019-05-09T11:54:27.888Z,19.90
2019-05-09T11:55:35.034Z,19.90
2019-05-09T11:56:27.839Z,20.00
2019-05-09T11:57:28.683Z,20.10
2019-05-09T11:58:27.996Z,20.00
2019-05-09T11:59:28.089Z,20.10
2019-05-09T12:00:29.218Z,19.70
2019-05-09T12:01:29.268Z,20.10
2019-05-09T12:02:27.972Z,20.30
2019-05-09T12:03:26.771Z,20.50
2019-05-09T12:04:28.151Z,20.30
2019-05-09T12:05:28.795Z,20.30
2019-05-09T12:06:28.977Z,20.00
2019-05-09T12:07:28.801Z,20.90
2019-05-09T12:08:26.712Z,20.70
2019-05-09T12:09:28.880Z,20.60
2019-05-09T12:10:28.598Z,20.50
2019-05-09T12:11:26.673Z,20.80
2019-05-09T12:12:28.301Z,20.60
2019-05-09T12:13:26.658Z,20.60
2019-05-09T12:14:27.609Z,20.70
2019-05-09T12:15:29.077Z,20.60
2019-05-09T12:16:27.999Z,21.40
2019-05-09T12:17:31.210Z,21.00
2019-05-09T12:18:28.606Z,20.80
2019-05-09T12:19:29.405Z,20.40
2019-05-09T12:20:27.727Z,20.90
2019-05-09T12:21:28.213Z,20.40
2019-05-09T12:22:28.031Z,20.70
2019-05-09T12:23:28.971Z,20.30
2019-05-09T12:24:26.530Z,20.80
2019-05-09T12:25:28.302Z,21.10
2019-05-09T12:26:29.227Z,21.30
2019-05-09T12:27:28.081Z,21.10
2019-05-09T12:28:26.496Z,21.10
2019-05-09T12:29:28.599Z,21.10
2019-05-09T12:30:28.480Z,21.20
2019-05-09T12:31:28.541Z,21.00
2019-05-09T12:32:28.525Z,20.70
2019-05-09T12:33:28.471Z,20.90
2019-05-09T12:34:27.698Z,20.90
2019-05-09T12:35:26.417Z,20.60
2019-05-09T12:36:28.596Z,20.70
2019-05-09T12:37:28.127Z,20.80
2019-05-09T12:38:27.720Z,21.60
2019-05-09T12:39:27.487Z,20.70
2019-05-09T12:40:26.393Z,20.40
2019-05-09T12:41:30.933Z,20.40
2019-05-09T12:42:28.913Z,20.50
2019-05-09T12:43:28.314Z,20.90
2019-05-09T12:44:28.716Z,20.60
2019-05-09T12:45:26.313Z,20.30
2019-05-09T12:46:28.382Z,20.70
2019-05-09T12:47:29.072Z,20.30
2019-05-09T12:48:27.887Z,20.60
2019-05-09T12:49:28.285Z,20.30
2019-05-09T12:50:28.392Z,19.90
2019-05-09T12:51:28.228Z,20.00
2019-05-09T12:52:28.612Z,20.00
2019-05-09T12:53:27.956Z,20.50
2019-05-09T12:54:27.935Z,20.70
2019-05-09T12:55:27.593Z,20.50
2019-05-09T12:56:28.376Z,20.60
2019-05-09T12:57:28.716Z,20.30
2019-05-09T12:58:27.659Z,20.20
2019-05-09T12:59:28.526Z,21.00
2019-05-09T13:00:28.386Z,20.90
2019-05-09T13:01:26.131Z,20.90
2019-05-09T13:02:27.883Z,21.30
2019-05-09T13:03:27.619Z,20.90
2019-05-09T13:04:28.124Z,20.70
2019-05-09T13:05:27.363Z,21.00
2019-05-09T13:06:28.941Z,20.70
2019-05-09T13:07:29.475Z,20.50
2019-05-09T13:08:27.819Z,21.00
2019-05-09T13:09:28.440Z,20.90
2019-05-09T13:10:28.236Z,20.60
2019-05-09T13:11:27.930Z,20.30
2019-05-09T13:12:28.937Z,20.30
2019-05-09T13:13:28.303Z,20.10
2019-05-09T13:14:28.391Z,20.60
2019-05-09T13:15:30.579Z,20.30
2019-05-09T13:16:43.494Z,20.10
2019-05-09T13:17:27.316Z,20.50
2019-05-09T13:18:29.514Z,20.20
2019-05-09T13:19:27.868Z,20.40
2019-05-09T13:20:28.437Z,20.40
2019-05-09T13:21:29.737Z,20.10
2019-05-09T13:22:28.428Z,20.50
2019-05-09T13:23:28.696Z,19.90
2019-05-09T13:24:28.224Z,19.80
2019-05-09T13:25:25.869Z,20.40
2019-05-09T13:26:28.526Z,20.00
2019-05-09T13:27:28.451Z,20.40
2019-05-09T13:28:25.852Z,20.50
2019-05-09T13:29:25.835Z,20.50
2019-05-09T13:30:28.282Z,20.50
2019-05-09T13:31:29.077Z,20.30
2019-05-09T13:32:28.037Z,20.50
2019-05-09T13:33:25.784Z,20.20
2019-05-09T13:34:28.218Z,20.20
2019-05-09T13:35:27.834Z,20.20
2019-05-09T13:36:28.105Z,20.20
2019-05-09T13:37:29.379Z,20.70
2019-05-09T13:38:27.646Z,20.00
2019-05-09T13:39:27.845Z,20.40
2019-05-09T13:40:29.042Z,20.10
2019-05-09T13:41:25.692Z,20.20
2019-05-09T13:42:28.246Z,20.10
2019-05-09T13:43:28.085Z,20.20
2019-05-09T13:44:27.687Z,20.10
2019-05-09T13:45:25.643Z,20.50
2019-05-09T13:46:28.016Z,20.20
2019-05-09T13:47:27.850Z,20.90
2019-05-09T13:48:37.850Z,21.20
2019-05-09T13:49:28.618Z,20.60
2019-05-09T13:50:25.589Z,20.10
2019-05-09T13:51:25.585Z,20.30
2019-05-09T13:52:27.386Z,20.50
2019-05-09T13:53:25.551Z,20.50
2019-05-09T13:54:28.321Z,20.40
2019-05-09T13:55:27.515Z,20.50
2019-05-09T13:56:27.806Z,20.70
2019-05-09T13:57:27.572Z,20.80
2019-05-09T13:58:25.521Z,21.40
2019-05-09T13:59:25.489Z,20.70
2019-05-09T14:00:25.491Z,20.70
2019-05-09T14:01:25.467Z,20.90
2019-05-09T14:02:25.455Z,20.80
2019-05-09T14:03:28.007Z,21.10
2019-05-09T14:04:28.426Z,20.50
2019-05-09T14:05:25.425Z,20.60
2019-05-09T14:06:27.550Z,20.20
2019-05-09T14:07:27.766Z,20.50
2019-05-09T14:08:27.972Z,20.30
2019-05-09T14:09:25.401Z,20.30
2019-05-09T14:10:25.398Z,20.90
2019-05-09T14:11:25.358Z,20.40
2019-05-09T14:12:25.348Z,20.30
2019-05-09T14:13:27.534Z,20.10
2019-05-09T14:14:27.911Z,20.40
2019-05-09T14:15:27.393Z,20.30
2019-05-09T14:16:25.311Z,20.50
2019-05-09T14:17:41.801Z,20.70
2019-05-09T14:18:26.287Z,20.20
2019-05-09T14:19:38.578Z,20.60
2019-05-09T14:20:27.556Z,20.30
2019-05-09T14:21:25.257Z,20.30
2019-05-09T14:22:25.251Z,20.00
2019-05-09T14:23:35.054Z,20.10
2019-05-09T14:24:27.882Z,20.20
2019-05-09T14:25:25.213Z,20.40
2019-05-09T14:26:25.199Z,20.00
2019-05-09T14:27:25.189Z,19.60
2019-05-09T14:28:26.594Z,19.80
2019-05-09T14:29:25.167Z,19.90
2019-05-09T14:30:27.406Z,19.60
2019-05-09T14:31:28.967Z,20.80
2019-05-09T14:32:26.820Z,20.20
2019-05-09T14:33:25.127Z,20.10
2019-05-09T14:34:25.106Z,20.30
2019-05-09T14:35:25.093Z,20.80
2019-05-09T14:36:27.561Z,20.00
2019-05-09T14:37:25.104Z,20.00
2019-05-09T14:38:25.061Z,20.30
2019-05-09T14:39:27.567Z,20.20
2019-05-09T14:40:25.041Z,20.00
2019-05-09T14:41:27.538Z,20.10
2019-05-09T14:42:25.013Z,20.20
2019-05-09T14:43:25.030Z,20.60
2019-05-09T14:44:27.614Z,20.00
2019-05-09T14:45:24.983Z,20.00
2019-05-09T14:46:24.983Z,19.90
2019-05-09T14:47:27.690Z,19.90
2019-05-09T14:48:25.054Z,20.60
2019-05-09T14:49:39.435Z,20.60
2019-05-09T14:50:28.331Z,19.70
2019-05-09T14:51:24.911Z,20.10
2019-05-09T14:52:24.995Z,19.80
2019-05-09T14:53:24.920Z,20.00
2019-05-09T14:54:24.890Z,20.00
2019-05-09T14:55:24.867Z,20.30
2019-05-09T14:56:24.889Z,20.40
2019-05-09T14:57:24.845Z,20.50
2019-05-09T14:58:24.876Z,20.30
2019-05-09T14:59:24.835Z,20.20
2019-05-09T15:00:24.875Z,20.00
2019-05-09T15:01:24.821Z,19.90
2019-05-09T15:02:24.793Z,19.80
2019-05-09T15:03:24.778Z,20.10
2019-05-09T15:04:24.769Z,20.00
2019-05-09T15:05:24.775Z,20.30
2019-05-09T15:06:24.748Z,20.40